sensor_id;sensor_type;location;lat;lon;timestamp;P1;durP1;ratioP1;P2;durP2;ratioP2
53907;SDS011;40469;47.998;7.794;2022-09-13T00:00:30;1.20;;;0.80;;
53907;SDS011;40469;47.998;7.794;2022-09-13T00:02:56;1.35;;;0.75;;
53907;SDS011;40469;47.998;7.794;2022-09-13T00:05:21;1.55;;;0.65;;
53907;SDS011;40469;47.998;7.794;2022-09-13T00:07:47;5.13;;;0.75;;
53907;SDS011;40469;47.998;7.794;2022-09-13T00:10:12;0.88;;;0.60;;
53907;SDS011;40469;47.998;7.794;2022-09-13T00:12:37;2.57;;;0.80;;
53907;SDS011;40469;47.998;7.794;2022-09-13T00:15:03;3.38;;;0.80;;
53907;SDS011;40469;47.998;7.794;2022-09-13T00:17:28;1.17;;;0.70;;
53907;SDS011;40469;47.998;7.794;2022-09-13T00:19:53;1.45;;;0.65;;
53907;SDS011;40469;47.998;7.794;2022-09-13T00:22:18;1.10;;;0.70;;
53907;SDS011;40469;47.998;7.794;2022-09-13T00:24:44;2.50;;;0.80;;
53907;SDS011;40469;47.998;7.794;2022-09-13T00:27:09;2.57;;;0.77;;
53907;SDS011;40469;47.998;7.794;2022-09-13T00:29:35;0.70;;;0.60;;
53907;SDS011;40469;47.998;7.794;2022-09-13T00:32:00;2.33;;;0.80;;
53907;SDS011;40469;47.998;7.794;2022-09-13T00:34:25;1.38;;;0.80;;
53907;SDS011;40469;47.998;7.794;2022-09-13T00:36:50;1.93;;;0.73;;
53907;SDS011;40469;47.998;7.794;2022-09-13T00:39:16;2.07;;;0.57;;
53907;SDS011;40469;47.998;7.794;2022-09-13T00:41:41;4.53;;;0.80;;
53907;SDS011;40469;47.998;7.794;2022-09-13T00:44:41;1.58;;;0.75;;
53907;SDS011;40469;47.998;7.794;2022-09-13T00:46:51;1.42;;;0.70;;
53907;SDS011;40469;47.998;7.794;2022-09-13T00:51:43;1.23;;;0.70;;
53907;SDS011;40469;47.998;7.794;2022-09-13T00:54:09;1.13;;;0.70;;
53907;SDS011;40469;47.998;7.794;2022-09-13T00:56:37;1.95;;;0.68;;
53907;SDS011;40469;47.998;7.794;2022-09-13T00:59:05;1.33;;;0.93;;
53907;SDS011;40469;47.998;7.794;2022-09-13T01:01:33;1.80;;;0.75;;
53907;SDS011;40469;47.998;7.794;2022-09-13T01:03:59;2.35;;;0.60;;
53907;SDS011;40469;47.998;7.794;2022-09-13T01:06:26;1.23;;;0.60;;
53907;SDS011;40469;47.998;7.794;2022-09-13T01:08:53;1.58;;;0.80;;
53907;SDS011;40469;47.998;7.794;2022-09-13T01:14:04;2.13;;;0.65;;
53907;SDS011;40469;47.998;7.794;2022-09-13T01:16:30;1.48;;;0.70;;
53907;SDS011;40469;47.998;7.794;2022-09-13T01:18:56;0.98;;;0.70;;
53907;SDS011;40469;47.998;7.794;2022-09-13T01:45:20;1.65;;;0.70;;
53907;SDS011;40469;47.998;7.794;2022-09-13T01:47:55;0.82;;;0.60;;
53907;SDS011;40469;47.998;7.794;2022-09-13T01:50:35;2.33;;;0.60;;
53907;SDS011;40469;47.998;7.794;2022-09-13T01:55:35;1.73;;;0.50;;
53907;SDS011;40469;47.998;7.794;2022-09-13T02:00:36;1.63;;;0.65;;
53907;SDS011;40469;47.998;7.794;2022-09-13T02:03:19;1.42;;;0.45;;
53907;SDS011;40469;47.998;7.794;2022-09-13T02:06:02;1.85;;;0.55;;
53907;SDS011;40469;47.998;7.794;2022-09-13T02:11:13;3.60;;;0.73;;
53907;SDS011;40469;47.998;7.794;2022-09-13T02:13:44;3.35;;;0.80;;
53907;SDS011;40469;47.998;7.794;2022-09-13T02:16:12;2.30;;;0.70;;
53907;SDS011;40469;47.998;7.794;2022-09-13T02:18:40;6.10;;;0.70;;
53907;SDS011;40469;47.998;7.794;2022-09-13T02:21:08;2.95;;;0.63;;
53907;SDS011;40469;47.998;7.794;2022-09-13T02:23:39;2.05;;;0.70;;
53907;SDS011;40469;47.998;7.794;2022-09-13T02:26:06;1.13;;;0.90;;
53907;SDS011;40469;47.998;7.794;2022-09-13T02:28:34;0.88;;;0.60;;
53907;SDS011;40469;47.998;7.794;2022-09-13T02:31:00;3.85;;;0.80;;
53907;SDS011;40469;47.998;7.794;2022-09-13T02:33:29;0.88;;;0.82;;
53907;SDS011;40469;47.998;7.794;2022-09-13T02:36:06;1.08;;;0.80;;
53907;SDS011;40469;47.998;7.794;2022-09-13T02:40:59;0.98;;;0.73;;
53907;SDS011;40469;47.998;7.794;2022-09-13T02:43:38;2.30;;;0.80;;
53907;SDS011;40469;47.998;7.794;2022-09-13T02:46:20;1.30;;;0.82;;
53907;SDS011;40469;47.998;7.794;2022-09-13T02:48:48;1.92;;;0.80;;
53907;SDS011;40469;47.998;7.794;2022-09-13T02:53:49;1.93;;;0.60;;
53907;SDS011;40469;47.998;7.794;2022-09-13T02:56:35;0.70;;;0.60;;
53907;SDS011;40469;47.998;7.794;2022-09-13T03:01:36;0.90;;;0.68;;
53907;SDS011;40469;47.998;7.794;2022-09-13T03:04:03;0.80;;;0.70;;
53907;SDS011;40469;47.998;7.794;2022-09-13T03:06:29;1.20;;;0.88;;
53907;SDS011;40469;47.998;7.794;2022-09-13T03:08:55;2.15;;;0.75;;
53907;SDS011;40469;47.998;7.794;2022-09-13T03:17:14;3.37;;;0.70;;
53907;SDS011;40469;47.998;7.794;2022-09-13T03:29:51;1.30;;;0.90;;
53907;SDS011;40469;47.998;7.794;2022-09-13T03:32:22;2.08;;;0.82;;
53907;SDS011;40469;47.998;7.794;2022-09-13T03:35:02;1.10;;;0.70;;
53907;SDS011;40469;47.998;7.794;2022-09-13T03:37:32;1.25;;;0.80;;
53907;SDS011;40469;47.998;7.794;2022-09-13T03:40:08;2.00;;;0.82;;
53907;SDS011;40469;47.998;7.794;2022-09-13T03:42:36;1.10;;;0.80;;
53907;SDS011;40469;47.998;7.794;2022-09-13T03:45:05;2.00;;;0.88;;
53907;SDS011;40469;47.998;7.794;2022-09-13T03:47:32;1.35;;;0.80;;
53907;SDS011;40469;47.998;7.794;2022-09-13T03:49:58;1.30;;;0.80;;
53907;SDS011;40469;47.998;7.794;2022-09-13T03:52:24;0.93;;;0.80;;
53907;SDS011;40469;47.998;7.794;2022-09-13T03:54:49;0.85;;;0.70;;
53907;SDS011;40469;47.998;7.794;2022-09-13T03:57:17;2.38;;;0.80;;
53907;SDS011;40469;47.998;7.794;2022-09-13T03:59:49;0.90;;;0.80;;
53907;SDS011;40469;47.998;7.794;2022-09-13T04:02:14;0.95;;;0.63;;
53907;SDS011;40469;47.998;7.794;2022-09-13T04:04:40;1.08;;;0.63;;
53907;SDS011;40469;47.998;7.794;2022-09-13T04:07:06;1.90;;;0.70;;
53907;SDS011;40469;47.998;7.794;2022-09-13T04:09:31;1.15;;;0.70;;
53907;SDS011;40469;47.998;7.794;2022-09-13T04:11:56;0.70;;;0.65;;
53907;SDS011;40469;47.998;7.794;2022-09-13T04:14:22;0.82;;;0.60;;
53907;SDS011;40469;47.998;7.794;2022-09-13T04:16:50;1.70;;;0.73;;
53907;SDS011;40469;47.998;7.794;2022-09-13T04:19:15;5.32;;;0.70;;
53907;SDS011;40469;47.998;7.794;2022-09-13T04:21:41;1.30;;;0.60;;
53907;SDS011;40469;47.998;7.794;2022-09-13T04:24:06;5.05;;;0.90;;
53907;SDS011;40469;47.998;7.794;2022-09-13T04:26:32;6.90;;;1.10;;
53907;SDS011;40469;47.998;7.794;2022-09-13T04:29:00;2.97;;;1.00;;
53907;SDS011;40469;47.998;7.794;2022-09-13T04:31:25;4.93;;;0.93;;
53907;SDS011;40469;47.998;7.794;2022-09-13T04:33:50;4.20;;;1.45;;
53907;SDS011;40469;47.998;7.794;2022-09-13T04:36:15;3.47;;;1.15;;
53907;SDS011;40469;47.998;7.794;2022-09-13T04:38:41;3.83;;;1.00;;
53907;SDS011;40469;47.998;7.794;2022-09-13T04:41:06;2.97;;;0.95;;
53907;SDS011;40469;47.998;7.794;2022-09-13T04:43:34;3.90;;;1.10;;
53907;SDS011;40469;47.998;7.794;2022-09-13T04:45:59;2.33;;;1.30;;
53907;SDS011;40469;47.998;7.794;2022-09-13T04:48:25;4.07;;;1.00;;
53907;SDS011;40469;47.998;7.794;2022-09-13T04:50:50;1.73;;;1.10;;
53907;SDS011;40469;47.998;7.794;2022-09-13T04:53:16;2.92;;;1.00;;
53907;SDS011;40469;47.998;7.794;2022-09-13T04:55:42;6.53;;;1.25;;
53907;SDS011;40469;47.998;7.794;2022-09-13T04:58:07;2.05;;;1.15;;
53907;SDS011;40469;47.998;7.794;2022-09-13T05:00:32;4.33;;;1.60;;
53907;SDS011;40469;47.998;7.794;2022-09-13T05:02:57;2.85;;;1.30;;
53907;SDS011;40469;47.998;7.794;2022-09-13T05:05:23;3.72;;;1.40;;
53907;SDS011;40469;47.998;7.794;2022-09-13T05:07:50;1.63;;;1.20;;
53907;SDS011;40469;47.998;7.794;2022-09-13T05:10:15;5.47;;;1.23;;
53907;SDS011;40469;47.998;7.794;2022-09-13T05:12:40;3.78;;;1.50;;
53907;SDS011;40469;47.998;7.794;2022-09-13T05:15:06;2.03;;;1.23;;
53907;SDS011;40469;47.998;7.794;2022-09-13T05:17:31;4.63;;;1.77;;
53907;SDS011;40469;47.998;7.794;2022-09-13T05:19:56;4.43;;;1.40;;
53907;SDS011;40469;47.998;7.794;2022-09-13T05:22:21;3.03;;;1.70;;
53907;SDS011;40469;47.998;7.794;2022-09-13T05:24:47;3.53;;;1.38;;
53907;SDS011;40469;47.998;7.794;2022-09-13T05:27:12;2.55;;;1.35;;
53907;SDS011;40469;47.998;7.794;2022-09-13T05:29:37;4.57;;;1.90;;
53907;SDS011;40469;47.998;7.794;2022-09-13T05:32:02;7.03;;;1.77;;
53907;SDS011;40469;47.998;7.794;2022-09-13T05:34:28;5.90;;;1.65;;
53907;SDS011;40469;47.998;7.794;2022-09-13T05:36:53;2.97;;;1.55;;
53907;SDS011;40469;47.998;7.794;2022-09-13T05:39:18;3.72;;;1.80;;
53907;SDS011;40469;47.998;7.794;2022-09-13T05:41:45;5.72;;;1.60;;
53907;SDS011;40469;47.998;7.794;2022-09-13T05:44:11;3.08;;;1.27;;
53907;SDS011;40469;47.998;7.794;2022-09-13T05:46:36;5.85;;;1.42;;
53907;SDS011;40469;47.998;7.794;2022-09-13T05:49:01;4.10;;;1.35;;
53907;SDS011;40469;47.998;7.794;2022-09-13T05:51:27;2.92;;;1.33;;
53907;SDS011;40469;47.998;7.794;2022-09-13T05:53:53;1.70;;;1.20;;
53907;SDS011;40469;47.998;7.794;2022-09-13T05:56:26;7.40;;;1.45;;
53907;SDS011;40469;47.998;7.794;2022-09-13T05:58:52;3.97;;;1.27;;
53907;SDS011;40469;47.998;7.794;2022-09-13T06:01:18;2.88;;;1.35;;
53907;SDS011;40469;47.998;7.794;2022-09-13T06:03:45;6.22;;;1.33;;
53907;SDS011;40469;47.998;7.794;2022-09-13T06:06:11;1.92;;;1.13;;
53907;SDS011;40469;47.998;7.794;2022-09-13T06:08:36;4.32;;;0.98;;
53907;SDS011;40469;47.998;7.794;2022-09-13T06:11:02;4.05;;;1.25;;
53907;SDS011;40469;47.998;7.794;2022-09-13T06:13:28;2.28;;;1.10;;
53907;SDS011;40469;47.998;7.794;2022-09-13T06:15:54;1.83;;;1.05;;
53907;SDS011;40469;47.998;7.794;2022-09-13T06:18:20;4.22;;;1.13;;
53907;SDS011;40469;47.998;7.794;2022-09-13T06:20:45;2.63;;;1.35;;
53907;SDS011;40469;47.998;7.794;2022-09-13T06:23:11;7.78;;;1.67;;
53907;SDS011;40469;47.998;7.794;2022-09-13T06:25:37;3.85;;;1.77;;
53907;SDS011;40469;47.998;7.794;2022-09-13T06:28:02;2.53;;;1.53;;
53907;SDS011;40469;47.998;7.794;2022-09-13T06:30:27;1.98;;;1.20;;
53907;SDS011;40469;47.998;7.794;2022-09-13T06:32:54;2.13;;;1.70;;
53907;SDS011;40469;47.998;7.794;2022-09-13T06:35:19;4.88;;;1.58;;
53907;SDS011;40469;47.998;7.794;2022-09-13T06:37:45;3.42;;;1.45;;
53907;SDS011;40469;47.998;7.794;2022-09-13T06:40:10;3.80;;;1.48;;
53907;SDS011;40469;47.998;7.794;2022-09-13T06:42:37;2.80;;;1.48;;
53907;SDS011;40469;47.998;7.794;2022-09-13T06:45:03;3.15;;;1.60;;
53907;SDS011;40469;47.998;7.794;2022-09-13T06:47:28;2.90;;;1.25;;
53907;SDS011;40469;47.998;7.794;2022-09-13T06:49:53;3.75;;;1.45;;
53907;SDS011;40469;47.998;7.794;2022-09-13T06:52:19;4.03;;;1.48;;
53907;SDS011;40469;47.998;7.794;2022-09-13T06:54:44;2.42;;;1.25;;
53907;SDS011;40469;47.998;7.794;2022-09-13T06:57:09;5.85;;;1.65;;
53907;SDS011;40469;47.998;7.794;2022-09-13T06:59:35;3.97;;;1.80;;
53907;SDS011;40469;47.998;7.794;2022-09-13T07:02:00;4.97;;;1.53;;
53907;SDS011;40469;47.998;7.794;2022-09-13T07:04:25;3.15;;;1.50;;
53907;SDS011;40469;47.998;7.794;2022-09-13T07:06:55;4.25;;;1.55;;
53907;SDS011;40469;47.998;7.794;2022-09-13T07:09:21;3.53;;;1.77;;
53907;SDS011;40469;47.998;7.794;2022-09-13T07:11:47;3.63;;;1.38;;
53907;SDS011;40469;47.998;7.794;2022-09-13T07:14:13;6.00;;;1.67;;
53907;SDS011;40469;47.998;7.794;2022-09-13T07:16:39;5.65;;;1.38;;
53907;SDS011;40469;47.998;7.794;2022-09-13T07:19:05;6.10;;;1.40;;
53907;SDS011;40469;47.998;7.794;2022-09-13T07:21:31;4.20;;;1.55;;
53907;SDS011;40469;47.998;7.794;2022-09-13T07:23:57;8.20;;;1.52;;
53907;SDS011;40469;47.998;7.794;2022-09-13T07:26:22;1.70;;;0.98;;
53907;SDS011;40469;47.998;7.794;2022-09-13T07:28:50;4.80;;;1.40;;
53907;SDS011;40469;47.998;7.794;2022-09-13T07:31:26;6.68;;;1.23;;
53907;SDS011;40469;47.998;7.794;2022-09-13T07:33:56;2.88;;;1.30;;
53907;SDS011;40469;47.998;7.794;2022-09-13T07:36:22;2.50;;;1.40;;
53907;SDS011;40469;47.998;7.794;2022-09-13T07:38:47;5.38;;;1.40;;
53907;SDS011;40469;47.998;7.794;2022-09-13T07:41:14;1.85;;;1.17;;
53907;SDS011;40469;47.998;7.794;2022-09-13T07:43:40;3.80;;;1.00;;
53907;SDS011;40469;47.998;7.794;2022-09-13T07:46:09;5.45;;;2.05;;
53907;SDS011;40469;47.998;7.794;2022-09-13T07:48:35;1.58;;;1.10;;
53907;SDS011;40469;47.998;7.794;2022-09-13T07:51:02;2.25;;;1.20;;
53907;SDS011;40469;47.998;7.794;2022-09-13T07:53:28;4.07;;;0.95;;
53907;SDS011;40469;47.998;7.794;2022-09-13T07:55:53;2.88;;;1.42;;
53907;SDS011;40469;47.998;7.794;2022-09-13T07:58:18;3.85;;;1.20;;
53907;SDS011;40469;47.998;7.794;2022-09-13T08:00:43;3.53;;;1.45;;
53907;SDS011;40469;47.998;7.794;2022-09-13T08:03:09;2.58;;;1.08;;
53907;SDS011;40469;47.998;7.794;2022-09-13T08:05:38;9.07;;;3.58;;
53907;SDS011;40469;47.998;7.794;2022-09-13T08:08:03;12.93;;;3.97;;
53907;SDS011;40469;47.998;7.794;2022-09-13T08:10:31;10.73;;;3.10;;
53907;SDS011;40469;47.998;7.794;2022-09-13T08:12:56;11.82;;;3.63;;
53907;SDS011;40469;47.998;7.794;2022-09-13T08:15:21;7.77;;;3.93;;
53907;SDS011;40469;47.998;7.794;2022-09-13T08:17:47;10.90;;;4.07;;
53907;SDS011;40469;47.998;7.794;2022-09-13T08:20:12;3.05;;;1.40;;
53907;SDS011;40469;47.998;7.794;2022-09-13T08:22:38;2.25;;;1.17;;
53907;SDS011;40469;47.998;7.794;2022-09-13T08:25:03;4.83;;;1.37;;
53907;SDS011;40469;47.998;7.794;2022-09-13T08:27:29;1.92;;;0.82;;
53907;SDS011;40469;47.998;7.794;2022-09-13T08:29:54;6.93;;;2.07;;
53907;SDS011;40469;47.998;7.794;2022-09-13T08:32:19;3.28;;;1.10;;
53907;SDS011;40469;47.998;7.794;2022-09-13T08:34:44;6.80;;;1.50;;
53907;SDS011;40469;47.998;7.794;2022-09-13T08:37:10;3.05;;;1.00;;
53907;SDS011;40469;47.998;7.794;2022-09-13T08:39:36;2.40;;;1.13;;
53907;SDS011;40469;47.998;7.794;2022-09-13T08:42:36;3.22;;;1.00;;
53907;SDS011;40469;47.998;7.794;2022-09-13T08:44:54;3.97;;;1.10;;
53907;SDS011;40469;47.998;7.794;2022-09-13T08:47:26;2.88;;;0.82;;
53907;SDS011;40469;47.998;7.794;2022-09-13T08:50:38;1.20;;;0.80;;
53907;SDS011;40469;47.998;7.794;2022-09-13T08:55:09;9.65;;;2.97;;
53907;SDS011;40469;47.998;7.794;2022-09-13T08:57:41;1.38;;;1.00;;
53907;SDS011;40469;47.998;7.794;2022-09-13T09:00:12;3.90;;;1.10;;
53907;SDS011;40469;47.998;7.794;2022-09-13T09:05:19;2.45;;;0.90;;
53907;SDS011;40469;47.998;7.794;2022-09-13T09:07:46;6.38;;;1.30;;
53907;SDS011;40469;47.998;7.794;2022-09-13T09:12:56;3.80;;;0.70;;
53907;SDS011;40469;47.998;7.794;2022-09-13T09:15:27;3.33;;;0.88;;
53907;SDS011;40469;47.998;7.794;2022-09-13T09:18:01;3.17;;;1.00;;
53907;SDS011;40469;47.998;7.794;2022-09-13T09:20:31;2.70;;;0.80;;
53907;SDS011;40469;47.998;7.794;2022-09-13T09:22:59;4.07;;;0.85;;
53907;SDS011;40469;47.998;7.794;2022-09-13T09:25:27;4.10;;;0.70;;
53907;SDS011;40469;47.998;7.794;2022-09-13T09:27:52;2.67;;;0.88;;
53907;SDS011;40469;47.998;7.794;2022-09-13T09:30:18;1.02;;;0.77;;
53907;SDS011;40469;47.998;7.794;2022-09-13T09:40:49;1.27;;;1.00;;
53907;SDS011;40469;47.998;7.794;2022-09-13T09:43:19;4.75;;;1.10;;
53907;SDS011;40469;47.998;7.794;2022-09-13T09:45:48;2.90;;;0.88;;
53907;SDS011;40469;47.998;7.794;2022-09-13T09:48:15;4.20;;;0.80;;
53907;SDS011;40469;47.998;7.794;2022-09-13T09:50:44;2.30;;;0.70;;
53907;SDS011;40469;47.998;7.794;2022-09-13T09:53:15;2.80;;;0.90;;
53907;SDS011;40469;47.998;7.794;2022-09-13T09:58:09;0.70;;;0.52;;
53907;SDS011;40469;47.998;7.794;2022-09-13T10:00:37;2.85;;;0.73;;
53907;SDS011;40469;47.998;7.794;2022-09-13T10:03:24;4.43;;;0.90;;
53907;SDS011;40469;47.998;7.794;2022-09-13T10:06:02;2.17;;;1.60;;
53907;SDS011;40469;47.998;7.794;2022-09-13T10:08:29;2.33;;;1.10;;
53907;SDS011;40469;47.998;7.794;2022-09-13T10:10:56;3.88;;;0.90;;
53907;SDS011;40469;47.998;7.794;2022-09-13T10:13:21;2.92;;;0.85;;
53907;SDS011;40469;47.998;7.794;2022-09-13T10:18:20;1.10;;;0.65;;
53907;SDS011;40469;47.998;7.794;2022-09-13T10:21:02;2.78;;;0.80;;
53907;SDS011;40469;47.998;7.794;2022-09-13T10:23:29;5.47;;;1.23;;
53907;SDS011;40469;47.998;7.794;2022-09-13T10:28:19;2.10;;;0.70;;
53907;SDS011;40469;47.998;7.794;2022-09-13T10:30:52;1.85;;;0.88;;
53907;SDS011;40469;47.998;7.794;2022-09-13T10:36:06;2.33;;;1.33;;
53907;SDS011;40469;47.998;7.794;2022-09-13T10:38:36;16.90;;;12.07;;
53907;SDS011;40469;47.998;7.794;2022-09-13T10:41:03;3.38;;;1.50;;
53907;SDS011;40469;47.998;7.794;2022-09-13T10:43:29;3.08;;;0.85;;
53907;SDS011;40469;47.998;7.794;2022-09-13T10:45:55;2.05;;;0.73;;
53907;SDS011;40469;47.998;7.794;2022-09-13T10:48:21;2.03;;;0.93;;
53907;SDS011;40469;47.998;7.794;2022-09-13T10:51:00;4.10;;;0.95;;
53907;SDS011;40469;47.998;7.794;2022-09-13T10:53:38;2.00;;;0.80;;
53907;SDS011;40469;47.998;7.794;2022-09-13T10:56:04;1.73;;;0.80;;
53907;SDS011;40469;47.998;7.794;2022-09-13T10:58:30;1.98;;;0.75;;
53907;SDS011;40469;47.998;7.794;2022-09-13T11:03:40;1.58;;;0.60;;
53907;SDS011;40469;47.998;7.794;2022-09-13T11:06:18;3.65;;;0.60;;
53907;SDS011;40469;47.998;7.794;2022-09-13T11:11:38;5.07;;;0.80;;
53907;SDS011;40469;47.998;7.794;2022-09-13T11:19:44;2.30;;;0.80;;
53907;SDS011;40469;47.998;7.794;2022-09-13T11:30:14;1.27;;;0.50;;
53907;SDS011;40469;47.998;7.794;2022-09-13T11:32:55;3.65;;;0.57;;
53907;SDS011;40469;47.998;7.794;2022-09-13T11:45:22;0.98;;;0.52;;
53907;SDS011;40469;47.998;7.794;2022-09-13T11:55:57;2.35;;;0.57;;
53907;SDS011;40469;47.998;7.794;2022-09-13T11:58:25;0.88;;;0.70;;
53907;SDS011;40469;47.998;7.794;2022-09-13T12:00:54;4.68;;;0.63;;
53907;SDS011;40469;47.998;7.794;2022-09-13T12:05:50;3.90;;;0.60;;
53907;SDS011;40469;47.998;7.794;2022-09-13T12:08:18;1.38;;;0.40;;
53907;SDS011;40469;47.998;7.794;2022-09-13T12:10:58;3.13;;;0.60;;
53907;SDS011;40469;47.998;7.794;2022-09-13T12:13:30;0.95;;;0.50;;
53907;SDS011;40469;47.998;7.794;2022-09-13T12:15:58;1.35;;;0.50;;
53907;SDS011;40469;47.998;7.794;2022-09-13T12:18:27;1.23;;;0.60;;
53907;SDS011;40469;47.998;7.794;2022-09-13T12:20:54;1.83;;;0.65;;
53907;SDS011;40469;47.998;7.794;2022-09-13T12:25:52;2.50;;;0.75;;
53907;SDS011;40469;47.998;7.794;2022-09-13T12:28:27;5.85;;;1.20;;
53907;SDS011;40469;47.998;7.794;2022-09-13T12:30:55;2.53;;;0.85;;
53907;SDS011;40469;47.998;7.794;2022-09-13T12:33:20;6.55;;;1.60;;
53907;SDS011;40469;47.998;7.794;2022-09-13T12:35:55;8.18;;;1.40;;
53907;SDS011;40469;47.998;7.794;2022-09-13T12:56:29;1.67;;;0.82;;
53907;SDS011;40469;47.998;7.794;2022-09-13T13:01:46;4.18;;;1.02;;
53907;SDS011;40469;47.998;7.794;2022-09-13T13:04:13;2.42;;;0.88;;
53907;SDS011;40469;47.998;7.794;2022-09-13T13:07:02;2.72;;;0.90;;
53907;SDS011;40469;47.998;7.794;2022-09-13T13:09:36;3.13;;;0.80;;
53907;SDS011;40469;47.998;7.794;2022-09-13T13:12:06;3.45;;;0.88;;
53907;SDS011;40469;47.998;7.794;2022-09-13T13:19:47;1.75;;;0.80;;
53907;SDS011;40469;47.998;7.794;2022-09-13T13:24:56;2.22;;;0.60;;
53907;SDS011;40469;47.998;7.794;2022-09-13T13:27:36;3.53;;;0.83;;
53907;SDS011;40469;47.998;7.794;2022-09-13T13:35:30;4.00;;;1.17;;
53907;SDS011;40469;47.998;7.794;2022-09-13T13:40:42;4.22;;;0.90;;
53907;SDS011;40469;47.998;7.794;2022-09-13T13:43:24;3.85;;;0.80;;
53907;SDS011;40469;47.998;7.794;2022-09-13T13:45:56;4.03;;;0.90;;
53907;SDS011;40469;47.998;7.794;2022-09-13T13:48:38;1.48;;;0.85;;
53907;SDS011;40469;47.998;7.794;2022-09-13T13:56:06;1.30;;;0.60;;
53907;SDS011;40469;47.998;7.794;2022-09-13T13:58:36;6.05;;;1.15;;
53907;SDS011;40469;47.998;7.794;2022-09-13T14:01:10;3.00;;;1.00;;
53907;SDS011;40469;47.998;7.794;2022-09-13T14:09:07;6.33;;;0.93;;
53907;SDS011;40469;47.998;7.794;2022-09-13T14:19:31;2.07;;;0.70;;
53907;SDS011;40469;47.998;7.794;2022-09-13T14:24:44;4.00;;;0.90;;
53907;SDS011;40469;47.998;7.794;2022-09-13T14:27:22;4.07;;;0.85;;
53907;SDS011;40469;47.998;7.794;2022-09-13T14:29:49;2.10;;;0.90;;
53907;SDS011;40469;47.998;7.794;2022-09-13T14:32:16;1.77;;;0.60;;
53907;SDS011;40469;47.998;7.794;2022-09-13T14:34:49;14.55;;;1.42;;
53907;SDS011;40469;47.998;7.794;2022-09-13T14:37:16;2.50;;;1.00;;
53907;SDS011;40469;47.998;7.794;2022-09-13T14:39:55;11.18;;;1.95;;
53907;SDS011;40469;47.998;7.794;2022-09-13T14:42:21;3.05;;;1.20;;
53907;SDS011;40469;47.998;7.794;2022-09-13T14:44:46;9.48;;;2.28;;
53907;SDS011;40469;47.998;7.794;2022-09-13T14:49:47;4.88;;;2.00;;
53907;SDS011;40469;47.998;7.794;2022-09-13T14:52:21;4.18;;;1.83;;
53907;SDS011;40469;47.998;7.794;2022-09-13T14:57:25;6.97;;;1.05;;
53907;SDS011;40469;47.998;7.794;2022-09-13T14:59:53;3.08;;;1.10;;
53907;SDS011;40469;47.998;7.794;2022-09-13T15:02:21;5.18;;;1.15;;
53907;SDS011;40469;47.998;7.794;2022-09-13T15:04:49;5.95;;;1.38;;
53907;SDS011;40469;47.998;7.794;2022-09-13T15:07:17;3.72;;;1.10;;
53907;SDS011;40469;47.998;7.794;2022-09-13T15:09:44;2.65;;;1.17;;
53907;SDS011;40469;47.998;7.794;2022-09-13T15:12:20;6.85;;;1.67;;
53907;SDS011;40469;47.998;7.794;2022-09-13T15:14:46;3.72;;;1.17;;
53907;SDS011;40469;47.998;7.794;2022-09-13T15:17:12;3.67;;;1.30;;
53907;SDS011;40469;47.998;7.794;2022-09-13T15:22:19;4.83;;;1.00;;
53907;SDS011;40469;47.998;7.794;2022-09-13T15:24:52;4.32;;;1.75;;
53907;SDS011;40469;47.998;7.794;2022-09-13T15:27:19;3.75;;;1.10;;
53907;SDS011;40469;47.998;7.794;2022-09-13T15:29:49;3.80;;;1.02;;
53907;SDS011;40469;47.998;7.794;2022-09-13T15:32:27;5.55;;;1.48;;
53907;SDS011;40469;47.998;7.794;2022-09-13T15:34:54;5.78;;;1.48;;
53907;SDS011;40469;47.998;7.794;2022-09-13T15:37:27;4.40;;;1.27;;
53907;SDS011;40469;47.998;7.794;2022-09-13T15:40:09;4.38;;;1.20;;
53907;SDS011;40469;47.998;7.794;2022-09-13T15:42:35;5.50;;;1.10;;
53907;SDS011;40469;47.998;7.794;2022-09-13T15:45:00;5.43;;;1.20;;
53907;SDS011;40469;47.998;7.794;2022-09-13T15:47:25;6.00;;;1.17;;
53907;SDS011;40469;47.998;7.794;2022-09-13T15:49:51;7.73;;;1.30;;
53907;SDS011;40469;47.998;7.794;2022-09-13T15:52:17;5.82;;;1.60;;
53907;SDS011;40469;47.998;7.794;2022-09-13T15:54:45;2.40;;;1.10;;
53907;SDS011;40469;47.998;7.794;2022-09-13T15:57:12;4.40;;;1.10;;
53907;SDS011;40469;47.998;7.794;2022-09-13T15:59:40;2.05;;;0.90;;
53907;SDS011;40469;47.998;7.794;2022-09-13T16:02:25;5.57;;;1.05;;
53907;SDS011;40469;47.998;7.794;2022-09-13T16:04:50;3.75;;;0.88;;
53907;SDS011;40469;47.998;7.794;2022-09-13T16:07:16;1.50;;;0.80;;
53907;SDS011;40469;47.998;7.794;2022-09-13T16:09:42;2.30;;;0.80;;
53907;SDS011;40469;47.998;7.794;2022-09-13T16:12:08;9.18;;;1.20;;
53907;SDS011;40469;47.998;7.794;2022-09-13T16:14:33;3.85;;;1.17;;
53907;SDS011;40469;47.998;7.794;2022-09-13T16:17:04;4.15;;;1.17;;
53907;SDS011;40469;47.998;7.794;2022-09-13T16:19:30;3.65;;;1.35;;
53907;SDS011;40469;47.998;7.794;2022-09-13T16:21:55;3.20;;;1.50;;
53907;SDS011;40469;47.998;7.794;2022-09-13T16:24:20;3.20;;;1.50;;
53907;SDS011;40469;47.998;7.794;2022-09-13T16:26:45;2.83;;;1.40;;
53907;SDS011;40469;47.998;7.794;2022-09-13T16:29:11;2.30;;;1.10;;
53907;SDS011;40469;47.998;7.794;2022-09-13T16:31:36;2.10;;;0.95;;
53907;SDS011;40469;47.998;7.794;2022-09-13T16:34:02;8.97;;;1.30;;
53907;SDS011;40469;47.998;7.794;2022-09-13T16:36:28;1.95;;;0.95;;
53907;SDS011;40469;47.998;7.794;2022-09-13T16:38:56;1.63;;;0.90;;
53907;SDS011;40469;47.998;7.794;2022-09-13T16:41:21;4.53;;;1.73;;
53907;SDS011;40469;47.998;7.794;2022-09-13T16:43:46;3.22;;;1.10;;
53907;SDS011;40469;47.998;7.794;2022-09-13T16:46:11;4.13;;;1.10;;
53907;SDS011;40469;47.998;7.794;2022-09-13T16:48:38;4.65;;;1.27;;
53907;SDS011;40469;47.998;7.794;2022-09-13T16:51:04;4.22;;;1.48;;
53907;SDS011;40469;47.998;7.794;2022-09-13T16:53:30;6.35;;;2.65;;
53907;SDS011;40469;47.998;7.794;2022-09-13T16:56:03;6.72;;;2.10;;
53907;SDS011;40469;47.998;7.794;2022-09-13T16:58:28;6.22;;;1.88;;
53907;SDS011;40469;47.998;7.794;2022-09-13T17:00:53;7.67;;;2.40;;
53907;SDS011;40469;47.998;7.794;2022-09-13T17:03:18;6.30;;;1.60;;
53907;SDS011;40469;47.998;7.794;2022-09-13T17:05:43;5.60;;;1.40;;
53907;SDS011;40469;47.998;7.794;2022-09-13T17:08:09;5.23;;;2.10;;
53907;SDS011;40469;47.998;7.794;2022-09-13T17:10:36;3.50;;;1.63;;
53907;SDS011;40469;47.998;7.794;2022-09-13T17:13:01;3.28;;;1.40;;
53907;SDS011;40469;47.998;7.794;2022-09-13T17:15:26;3.30;;;1.53;;
53907;SDS011;40469;47.998;7.794;2022-09-13T17:17:52;3.08;;;1.15;;
53907;SDS011;40469;47.998;7.794;2022-09-13T17:20:17;4.90;;;2.17;;
53907;SDS011;40469;47.998;7.794;2022-09-13T17:22:42;5.30;;;1.30;;
53907;SDS011;40469;47.998;7.794;2022-09-13T17:25:07;5.80;;;1.40;;
53907;SDS011;40469;47.998;7.794;2022-09-13T17:27:33;3.33;;;1.35;;
53907;SDS011;40469;47.998;7.794;2022-09-13T17:29:59;2.85;;;1.50;;
53907;SDS011;40469;47.998;7.794;2022-09-13T17:32:26;4.38;;;1.63;;
53907;SDS011;40469;47.998;7.794;2022-09-13T17:34:51;7.70;;;1.80;;
53907;SDS011;40469;47.998;7.794;2022-09-13T17:37:16;5.95;;;1.60;;
53907;SDS011;40469;47.998;7.794;2022-09-13T17:39:42;5.22;;;1.73;;
53907;SDS011;40469;47.998;7.794;2022-09-13T17:42:07;6.30;;;1.80;;
53907;SDS011;40469;47.998;7.794;2022-09-13T17:44:32;4.97;;;1.97;;
53907;SDS011;40469;47.998;7.794;2022-09-13T17:46:57;8.97;;;1.97;;
53907;SDS011;40469;47.998;7.794;2022-09-13T17:49:23;3.13;;;1.88;;
53907;SDS011;40469;47.998;7.794;2022-09-13T17:51:48;8.45;;;1.67;;
53907;SDS011;40469;47.998;7.794;2022-09-13T17:54:14;25.38;;;4.18;;
53907;SDS011;40469;47.998;7.794;2022-09-13T17:56:42;21.98;;;12.02;;
53907;SDS011;40469;47.998;7.794;2022-09-13T17:59:09;101.25;;;47.55;;
53907;SDS011;40469;47.998;7.794;2022-09-13T18:01:35;60.33;;;31.15;;
53907;SDS011;40469;47.998;7.794;2022-09-13T18:04:01;19.67;;;10.18;;
53907;SDS011;40469;47.998;7.794;2022-09-13T18:06:26;10.10;;;4.10;;